createdAt,value
2023-05-20T00:02:24.966Z,11.00
2023-05-20T00:04:53.043Z,11.00
2023-05-20T00:07:22.364Z,11.00
2023-05-20T00:09:50.614Z,11.00
2023-05-20T00:12:18.798Z,11.10
2023-05-20T00:14:46.787Z,11.00
2023-05-20T00:17:14.739Z,11.00
2023-05-20T00:19:42.670Z,11.10
2023-05-20T00:22:10.742Z,11.10
2023-05-20T00:24:40.043Z,11.00
2023-05-20T00:27:08.003Z,11.00
2023-05-20T00:29:35.982Z,11.00
2023-05-20T00:32:04.021Z,10.90
2023-05-20T00:34:32.060Z,10.90
2023-05-20T00:37:00.303Z,10.90
2023-05-20T00:39:29.664Z,10.80
2023-05-20T00:42:00.573Z,10.80
2023-05-20T00:44:28.734Z,10.80
2023-05-20T00:46:57.096Z,10.80
2023-05-20T00:49:25.182Z,10.80
2023-05-20T00:51:53.213Z,10.80
2023-05-20T00:54:21.262Z,10.80
2023-05-20T00:56:49.402Z,10.80
2023-05-20T00:59:19.117Z,10.90
2023-05-20T01:01:47.231Z,10.90
2023-05-20T01:04:15.680Z,11.10
2023-05-20T01:06:43.699Z,11.10
2023-05-20T01:09:11.950Z,11.20
2023-05-20T01:11:45.945Z,11.30
2023-05-20T01:14:17.247Z,11.30
2023-05-20T01:16:48.065Z,11.40
2023-05-20T01:19:23.165Z,11.40
2023-05-20T01:21:54.242Z,11.50
2023-05-20T01:24:23.537Z,11.50
2023-05-20T01:26:51.487Z,11.60
2023-05-20T01:29:19.606Z,11.60
2023-05-20T01:31:49.176Z,11.60
2023-05-20T01:34:17.757Z,11.70
2023-05-20T01:36:47.375Z,11.70
2023-05-20T01:39:15.476Z,11.70
2023-05-20T01:41:45.631Z,11.80
2023-05-20T01:44:13.659Z,11.80
2023-05-20T01:46:41.663Z,11.80
2023-05-20T01:49:09.644Z,11.90
2023-05-20T01:51:38.054Z,11.90
2023-05-20T01:54:06.092Z,12.00
2023-05-20T01:56:34.173Z,12.00
2023-05-20T01:59:03.516Z,12.00
2023-05-20T02:01:31.550Z,12.10
2023-05-20T02:03:59.598Z,12.10
2023-05-20T02:06:27.595Z,12.20
2023-05-20T02:08:55.676Z,12.20
2023-05-20T02:11:23.709Z,12.20
2023-05-20T02:13:52.174Z,12.20
2023-05-20T02:16:21.523Z,12.20
2023-05-20T02:18:51.635Z,12.20
2023-05-20T02:21:20.034Z,12.20
2023-05-20T02:23:48.016Z,12.30
2023-05-20T02:26:16.313Z,12.30
2023-05-20T02:28:46.832Z,12.30
2023-05-20T02:31:14.890Z,12.30
2023-05-20T02:33:44.295Z,12.30
2023-05-20T02:36:12.310Z,12.30
2023-05-20T02:38:40.653Z,12.30
2023-05-20T02:41:08.809Z,12.30
2023-05-20T02:43:37.213Z,12.30
2023-05-20T02:46:05.811Z,12.20
2023-05-20T02:48:33.887Z,12.20
2023-05-20T02:51:03.296Z,12.20
2023-05-20T02:53:31.295Z,12.20
2023-05-20T02:55:59.684Z,12.20
2023-05-20T02:58:27.793Z,12.20
2023-05-20T03:00:57.629Z,12.20
2023-05-20T03:03:27.607Z,12.20
2023-05-20T03:05:55.613Z,12.20
2023-05-20T03:08:25.130Z,12.20
2023-05-20T03:10:53.095Z,12.20
2023-05-20T03:13:21.056Z,12.20
2023-05-20T03:15:49.077Z,12.20
2023-05-20T03:18:17.256Z,12.20
2023-05-20T03:20:46.178Z,12.30
2023-05-20T03:23:14.151Z,12.20
2023-05-20T03:25:43.477Z,12.30
2023-05-20T03:28:11.413Z,12.30
2023-05-20T03:30:39.382Z,12.30
2023-05-20T03:33:07.640Z,12.30
2023-05-20T03:35:35.919Z,12.30
2023-05-20T03:38:04.311Z,12.30
2023-05-20T03:40:32.349Z,12.30
2023-05-20T03:43:01.636Z,12.30
2023-05-20T03:45:29.621Z,12.30
2023-05-20T03:47:57.615Z,12.30
2023-05-20T03:50:25.876Z,12.30
2023-05-20T03:52:53.880Z,12.40
2023-05-20T03:55:21.881Z,12.40
2023-05-20T03:57:49.861Z,12.40
2023-05-20T04:00:19.388Z,12.40
2023-05-20T04:02:48.137Z,12.40
2023-05-20T04:05:16.269Z,12.40
2023-05-20T04:07:44.344Z,12.40
2023-05-20T04:10:12.679Z,12.50
2023-05-20T04:12:41.347Z,12.50
2023-05-20T04:15:10.654Z,12.60
2023-05-20T04:17:40.596Z,12.70
2023-05-20T04:20:11.371Z,12.80
2023-05-20T04:22:40.401Z,12.90
2023-05-20T04:25:09.906Z,13.00
2023-05-20T04:27:39.679Z,13.10
2023-05-20T04:30:09.853Z,13.10
2023-05-20T04:32:39.485Z,13.10
2023-05-20T04:35:11.882Z,13.20
2023-05-20T04:37:40.304Z,13.20
2023-05-20T04:40:09.511Z,13.20
2023-05-20T04:42:37.811Z,13.20
2023-05-20T04:45:08.855Z,13.10
2023-05-20T04:47:38.847Z,13.10
2023-05-20T04:50:11.067Z,13.10
2023-05-20T04:52:39.481Z,13.10
2023-05-20T04:55:12.040Z,13.10
2023-05-20T04:57:42.509Z,13.10
2023-05-20T05:00:13.301Z,13.00
2023-05-20T05:02:41.695Z,13.00
2023-05-20T05:05:11.377Z,13.00
2023-05-20T05:07:39.349Z,13.00
2023-05-20T05:10:08.046Z,13.00
2023-05-20T05:12:36.015Z,13.00
2023-05-20T05:15:04.092Z,13.10
2023-05-20T05:17:32.088Z,13.20
2023-05-20T05:20:00.120Z,13.30
2023-05-20T05:22:29.546Z,13.30
2023-05-20T05:24:58.965Z,13.40
2023-05-20T05:27:26.993Z,13.50
2023-05-20T05:29:54.979Z,13.60
2023-05-20T05:32:23.021Z,13.60
2023-05-20T05:34:51.249Z,13.70
2023-05-20T05:37:19.254Z,13.70
2023-05-20T05:39:49.030Z,13.80
2023-05-20T05:42:17.275Z,13.90
2023-05-20T05:44:45.418Z,14.00
2023-05-20T05:47:13.432Z,14.10
2023-05-20T05:49:41.531Z,14.20
2023-05-20T05:52:09.880Z,14.30
2023-05-20T05:54:37.852Z,14.40
2023-05-20T05:57:07.777Z,14.40
2023-05-20T05:59:36.132Z,14.50
2023-05-20T06:02:04.211Z,14.60
2023-05-20T06:04:32.275Z,14.70
2023-05-20T06:07:00.619Z,14.70
2023-05-20T06:09:28.766Z,14.80
2023-05-20T06:11:56.800Z,14.80
2023-05-20T06:14:26.094Z,14.70
2023-05-20T06:16:54.165Z,14.70
2023-05-20T06:19:22.261Z,14.80
2023-05-20T06:21:50.350Z,14.80
2023-05-20T06:24:18.325Z,14.80
2023-05-20T06:26:47.124Z,14.90
2023-05-20T06:29:15.120Z,15.00
2023-05-20T06:31:44.583Z,15.10
2023-05-20T06:34:12.556Z,15.20
2023-05-20T06:36:40.546Z,15.30
2023-05-20T06:39:12.318Z,15.50
2023-05-20T06:41:40.605Z,15.70
2023-05-20T06:44:08.906Z,16.00
2023-05-20T06:46:37.040Z,16.20
2023-05-20T06:49:06.417Z,16.20
2023-05-20T06:51:34.416Z,16.40
2023-05-20T06:54:02.541Z,16.60
2023-05-20T06:56:30.525Z,16.70
2023-05-20T06:58:58.532Z,16.80
2023-05-20T07:01:26.636Z,17.10
2023-05-20T07:03:54.710Z,17.00
2023-05-20T07:06:24.263Z,16.90
2023-05-20T07:08:52.276Z,16.60
2023-05-20T07:11:20.247Z,16.40
2023-05-20T07:13:48.245Z,16.40
2023-05-20T07:16:16.290Z,16.50
2023-05-20T07:18:44.364Z,16.70
2023-05-20T07:21:12.391Z,17.00
2023-05-20T07:23:41.864Z,17.20
2023-05-20T07:26:09.852Z,17.10
2023-05-20T07:28:37.895Z,17.20
2023-05-20T07:31:06.319Z,17.20
2023-05-20T07:33:34.294Z,17.20
2023-05-20T07:36:02.387Z,17.20
2023-05-20T07:38:30.635Z,17.30
2023-05-20T07:40:59.987Z,17.40
2023-05-20T07:43:27.973Z,17.40
2023-05-20T07:45:55.999Z,17.50
2023-05-20T07:48:23.985Z,17.50
2023-05-20T07:50:52.541Z,17.50
2023-05-20T07:53:20.547Z,17.60
2023-05-20T07:55:48.573Z,17.60
2023-05-20T07:58:18.143Z,17.70
2023-05-20T08:00:46.350Z,17.90
2023-05-20T08:03:14.622Z,17.80
2023-05-20T08:05:43.202Z,17.60
2023-05-20T08:08:11.551Z,17.60
2023-05-20T08:10:39.581Z,17.70
2023-05-20T08:13:07.688Z,17.90
2023-05-20T08:15:37.468Z,18.30
2023-05-20T08:18:05.598Z,18.60
2023-05-20T08:20:33.604Z,19.00
2023-05-20T08:23:01.588Z,19.50
2023-05-20T08:25:30.109Z,19.90
2023-05-20T08:27:58.125Z,19.90
2023-05-20T08:30:26.184Z,19.60
2023-05-20T08:32:55.528Z,19.30
2023-05-20T08:35:24.844Z,18.90
2023-05-20T08:37:54.058Z,18.70
2023-05-20T08:40:22.484Z,18.60
2023-05-20T08:42:52.893Z,18.40
2023-05-20T08:45:24.434Z,18.30
2023-05-20T08:47:52.638Z,18.10
2023-05-20T08:50:22.262Z,18.20
2023-05-20T08:52:50.599Z,18.20
2023-05-20T08:55:22.838Z,18.30
2023-05-20T08:57:51.793Z,18.20
2023-05-20T09:00:23.474Z,18.20
2023-05-20T09:02:51.910Z,18.20
2023-05-20T09:05:22.291Z,18.20
2023-05-20T09:07:50.703Z,18.00
2023-05-20T09:10:18.741Z,17.90
2023-05-20T09:12:46.714Z,18.00
2023-05-20T09:15:14.702Z,18.20
2023-05-20T09:17:42.683Z,18.30
2023-05-20T09:20:12.014Z,18.70
2023-05-20T09:22:41.621Z,19.40
2023-05-20T09:25:12.408Z,19.90
2023-05-20T09:27:41.303Z,20.50
2023-05-20T09:30:12.710Z,20.80
2023-05-20T09:32:40.867Z,21.20
2023-05-20T09:35:09.614Z,21.70
2023-05-20T09:37:38.562Z,21.90
2023-05-20T09:40:10.159Z,21.80
2023-05-20T09:42:43.409Z,21.60
2023-05-20T09:45:11.570Z,21.60
2023-05-20T09:47:40.677Z,21.50
2023-05-20T09:50:10.274Z,21.60
2023-05-20T09:52:40.073Z,21.60
2023-05-20T09:55:11.451Z,21.20
2023-05-20T09:57:39.667Z,21.10
2023-05-20T10:00:10.384Z,20.80
2023-05-20T10:02:39.138Z,20.70
2023-05-20T10:05:12.215Z,20.90
2023-05-20T10:08:00.865Z,21.30
2023-05-20T10:10:38.449Z,21.60
2023-05-20T10:13:19.429Z,22.10
2023-05-20T10:15:56.351Z,22.10
2023-05-20T10:18:35.243Z,22.20
2023-05-20T10:21:03.227Z,21.90
2023-05-20T10:23:32.285Z,21.60
2023-05-20T10:26:08.197Z,21.40
2023-05-20T10:28:37.589Z,21.40
2023-05-20T10:31:17.084Z,21.20
2023-05-20T10:33:46.575Z,21.20
2023-05-20T10:36:26.224Z,21.20
2023-05-20T10:38:55.501Z,21.30
2023-05-20T10:41:27.148Z,21.20
2023-05-20T10:44:03.141Z,20.90
2023-05-20T10:46:40.155Z,20.80
2023-05-20T10:49:24.068Z,20.70
2023-05-20T10:51:55.613Z,21.00
2023-05-20T10:54:24.003Z,21.20
2023-05-20T10:56:54.975Z,21.10
2023-05-20T10:59:23.196Z,21.30
2023-05-20T11:01:51.913Z,21.40
2023-05-20T11:04:20.648Z,21.70
2023-05-20T11:06:54.072Z,21.80
2023-05-20T11:09:22.398Z,21.80
2023-05-20T11:11:51.398Z,21.90
2023-05-20T11:14:20.715Z,21.90
2023-05-20T11:16:53.162Z,21.70
2023-05-20T11:19:22.042Z,21.40
2023-05-20T11:21:51.457Z,21.30
2023-05-20T11:24:27.009Z,21.40
2023-05-20T11:26:55.351Z,21.40
2023-05-20T11:29:24.878Z,21.30
2023-05-20T11:31:53.304Z,21.20
2023-05-20T11:34:25.010Z,21.20
2023-05-20T11:36:57.858Z,21.50
2023-05-20T11:39:27.470Z,21.60
2023-05-20T11:41:55.695Z,21.60
2023-05-20T11:44:26.472Z,21.60
2023-05-20T11:47:01.187Z,21.70
2023-05-20T11:49:30.662Z,21.60
2023-05-20T11:51:58.829Z,21.50
2023-05-20T11:54:27.093Z,21.50
2023-05-20T11:56:55.888Z,21.60
2023-05-20T11:59:26.457Z,21.80
2023-05-20T12:01:54.488Z,21.90
2023-05-20T12:04:22.566Z,22.00
2023-05-20T12:06:51.078Z,21.90
2023-05-20T12:09:19.057Z,21.80
2023-05-20T12:11:47.088Z,21.60
2023-05-20T12:14:15.186Z,21.50
2023-05-20T12:16:44.514Z,21.40
2023-05-20T12:19:12.546Z,21.40
2023-05-20T12:21:40.576Z,21.40
2023-05-20T12:24:09.280Z,21.50
2023-05-20T12:26:37.283Z,21.50
2023-05-20T12:29:05.423Z,21.30
2023-05-20T12:31:35.151Z,21.40
2023-05-20T12:34:04.699Z,21.40
2023-05-20T12:36:33.775Z,21.50
2023-05-20T12:39:02.048Z,21.60
2023-05-20T12:41:30.113Z,21.80
2023-05-20T12:43:58.190Z,21.90
2023-05-20T12:46:26.235Z,22.20
2023-05-20T12:48:54.298Z,22.30
2023-05-20T12:51:23.614Z,22.40
2023-05-20T12:53:51.673Z,22.60
2023-05-20T12:56:20.042Z,22.70
2023-05-20T12:58:48.058Z,22.70
2023-05-20T13:01:16.106Z,22.50
2023-05-20T13:03:44.225Z,22.40
2023-05-20T13:06:12.311Z,22.40
2023-05-20T13:08:41.849Z,22.30
2023-05-20T13:11:09.885Z,22.30
2023-05-20T13:13:37.847Z,22.40
2023-05-20T13:16:06.439Z,22.50
2023-05-20T13:18:34.465Z,22.40
2023-05-20T13:21:02.478Z,22.30
2023-05-20T13:23:30.472Z,22.20
2023-05-20T13:25:59.871Z,22.20
2023-05-20T13:28:28.133Z,22.30
2023-05-20T13:30:56.300Z,22.30
2023-05-20T13:33:24.361Z,22.30
2023-05-20T13:35:52.640Z,22.30
2023-05-20T13:38:20.671Z,22.10
2023-05-20T13:40:49.137Z,22.10
2023-05-20T13:43:18.814Z,22.20
2023-05-20T13:45:46.789Z,22.50
2023-05-20T13:48:14.833Z,22.60
2023-05-20T13:50:42.926Z,22.70
2023-05-20T13:53:12.561Z,22.80
2023-05-20T13:55:40.638Z,22.90
2023-05-20T13:58:09.887Z,22.80
2023-05-20T14:00:39.549Z,22.70
2023-05-20T14:03:09.230Z,22.60
2023-05-20T14:05:37.397Z,22.50
2023-05-20T14:08:06.029Z,22.40
2023-05-20T14:10:34.177Z,22.50
2023-05-20T14:13:03.067Z,22.60
2023-05-20T14:15:31.420Z,22.60
2023-05-20T14:18:00.875Z,22.50
2023-05-20T14:20:29.010Z,22.50
2023-05-20T14:22:57.243Z,22.40
2023-05-20T14:25:25.304Z,22.40
2023-05-20T14:27:53.307Z,22.40
2023-05-20T14:30:21.880Z,22.40
2023-05-20T14:32:49.942Z,22.40
2023-05-20T14:35:19.454Z,22.50
2023-05-20T14:37:47.672Z,22.50
2023-05-20T14:40:16.576Z,22.50
2023-05-20T14:42:44.618Z,22.50
2023-05-20T14:45:12.713Z,22.40
2023-05-20T14:47:40.997Z,22.30
2023-05-20T14:50:09.554Z,22.20
2023-05-20T14:52:38.930Z,22.20
2023-05-20T14:55:08.143Z,22.30
2023-05-20T14:57:36.489Z,22.30
2023-05-20T15:00:05.385Z,22.30
2023-05-20T15:02:33.497Z,22.40
2023-05-20T15:05:01.622Z,22.50
2023-05-20T15:07:30.633Z,22.40
2023-05-20T15:10:00.003Z,22.40
2023-05-20T15:12:28.036Z,22.50
2023-05-20T15:14:56.082Z,22.50
2023-05-20T15:17:24.155Z,22.50
2023-05-20T15:19:52.252Z,22.60
2023-05-20T15:22:20.221Z,22.60
2023-05-20T15:24:48.205Z,22.60
2023-05-20T15:27:17.599Z,22.60
2023-05-20T15:29:45.788Z,22.70
2023-05-20T15:32:13.748Z,22.70
2023-05-20T15:34:41.784Z,22.60
2023-05-20T15:37:09.806Z,22.60
2023-05-20T15:39:39.440Z,22.60
2023-05-20T15:42:07.519Z,22.50
2023-05-20T15:44:37.012Z,22.50
2023-05-20T15:47:05.991Z,22.50
2023-05-20T15:49:34.264Z,22.40
2023-05-20T15:52:03.951Z,22.40
2023-05-20T15:54:32.406Z,22.40
2023-05-20T15:57:00.581Z,22.40
2023-05-20T15:59:28.593Z,22.30
2023-05-20T16:01:58.038Z,22.30
2023-05-20T16:04:26.156Z,22.30
2023-05-20T16:06:54.214Z,22.20
2023-05-20T16:09:22.387Z,22.10
2023-05-20T16:11:50.446Z,22.10
2023-05-20T16:14:18.619Z,22.00
2023-05-20T16:16:46.740Z,22.00
2023-05-20T16:19:16.281Z,22.00
2023-05-20T16:21:44.440Z,22.00
2023-05-20T16:24:12.489Z,22.00
2023-05-20T16:26:40.550Z,22.00
2023-05-20T16:29:08.605Z,22.00
2023-05-20T16:31:36.648Z,22.00
2023-05-20T16:34:04.936Z,21.90
2023-05-20T16:36:34.304Z,21.90
2023-05-20T16:39:02.371Z,21.80
2023-05-20T16:41:30.697Z,21.80
2023-05-20T16:43:58.713Z,21.70
2023-05-20T16:46:26.744Z,21.70
2023-05-20T16:48:54.797Z,21.60
2023-05-20T16:51:22.987Z,21.60
2023-05-20T16:53:52.360Z,21.50
2023-05-20T16:56:23.027Z,21.50
2023-05-20T16:58:52.957Z,21.50
2023-05-20T17:01:23.045Z,21.50
2023-05-20T17:03:51.170Z,21.50
2023-05-20T17:06:19.296Z,21.50
2023-05-20T17:08:47.288Z,21.40
2023-05-20T17:11:16.693Z,21.40
2023-05-20T17:13:44.668Z,21.30
2023-05-20T17:16:12.937Z,21.30
2023-05-20T17:18:41.029Z,21.20
2023-05-20T17:21:09.062Z,21.20
2023-05-20T17:23:37.042Z,21.10
2023-05-20T17:26:05.528Z,21.20
2023-05-20T17:28:34.853Z,21.20
2023-05-20T17:31:02.857Z,21.20
2023-05-20T17:33:31.514Z,21.10
2023-05-20T17:35:59.690Z,21.10
2023-05-20T17:38:27.669Z,21.10
2023-05-20T17:40:56.311Z,21.10
2023-05-20T17:43:25.190Z,21.00
2023-05-20T17:45:54.666Z,21.00
2023-05-20T17:48:22.749Z,21.00
2023-05-20T17:50:50.793Z,20.90
2023-05-20T17:53:21.041Z,20.90
2023-05-20T17:55:49.829Z,20.80
2023-05-20T17:58:17.927Z,20.80
2023-05-20T18:00:45.949Z,20.70
2023-05-20T18:03:15.422Z,20.70
2023-05-20T18:05:43.474Z,20.70
2023-05-20T18:08:11.764Z,20.60
2023-05-20T18:10:39.880Z,20.60
2023-05-20T18:13:07.920Z,20.60
2023-05-20T18:15:35.924Z,20.60
2023-05-20T18:18:04.053Z,20.50
2023-05-20T18:20:33.542Z,20.50
2023-05-20T18:23:01.712Z,20.40
2023-05-20T18:25:29.717Z,20.40
2023-05-20T18:27:57.710Z,20.40
2023-05-20T18:30:25.742Z,20.30
2023-05-20T18:32:53.894Z,20.20
2023-05-20T18:35:22.517Z,20.20
2023-05-20T18:37:52.158Z,20.20
2023-05-20T18:40:20.838Z,20.10
2023-05-20T18:42:48.856Z,20.10
2023-05-20T18:45:17.013Z,20.00
2023-05-20T18:47:45.268Z,20.00
2023-05-20T18:50:13.307Z,19.90
2023-05-20T18:52:41.520Z,19.90
2023-05-20T18:55:11.400Z,19.80
2023-05-20T18:57:39.458Z,19.80
2023-05-20T19:00:11.918Z,19.70
2023-05-20T19:02:41.257Z,19.60
2023-05-20T19:05:10.693Z,19.60
2023-05-20T19:07:38.897Z,19.50
2023-05-20T19:10:08.241Z,19.50
2023-05-20T19:12:37.623Z,19.40
2023-05-20T19:15:06.393Z,19.40
2023-05-20T19:17:34.453Z,19.30
2023-05-20T19:20:02.636Z,19.30
2023-05-20T19:22:30.816Z,19.20
2023-05-20T19:24:58.979Z,19.20
2023-05-20T19:27:27.009Z,19.20
2023-05-20T19:29:56.441Z,19.10
2023-05-20T19:32:24.405Z,19.10
2023-05-20T19:34:52.436Z,19.00
2023-05-20T19:37:22.924Z,19.00
2023-05-20T19:39:51.309Z,19.00
2023-05-20T19:42:19.360Z,18.90
2023-05-20T19:44:56.097Z,18.90
2023-05-20T19:47:24.178Z,18.90
2023-05-20T19:49:52.204Z,18.80
2023-05-20T19:52:20.999Z,18.80
2023-05-20T19:54:49.014Z,18.70
2023-05-20T19:57:17.073Z,18.70
2023-05-20T19:59:45.069Z,18.70
2023-05-20T20:02:14.872Z,18.70
2023-05-20T20:04:44.103Z,18.60
2023-05-20T20:07:12.304Z,18.60
2023-05-20T20:09:40.580Z,18.60
2023-05-20T20:12:09.283Z,18.50
2023-05-20T20:14:50.161Z,18.50
2023-05-20T20:17:21.348Z,18.50
2023-05-20T20:19:52.927Z,18.40
2023-05-20T20:22:21.044Z,18.40
2023-05-20T20:24:49.811Z,18.40
2023-05-20T20:27:19.306Z,18.40
2023-05-20T20:29:47.329Z,18.40
2023-05-20T20:32:15.636Z,18.30
2023-05-20T20:34:45.965Z,18.30
2023-05-20T20:37:15.688Z,18.30
2023-05-20T20:39:45.352Z,18.20
2023-05-20T20:42:13.333Z,18.20
2023-05-20T20:44:42.692Z,18.20
2023-05-20T20:47:14.641Z,18.20
2023-05-20T20:49:44.057Z,18.20
2023-05-20T20:52:12.479Z,18.10
2023-05-20T20:54:42.882Z,18.10
2023-05-20T20:57:11.496Z,18.00
2023-05-20T20:59:39.842Z,18.10
2023-05-20T21:02:07.942Z,18.00
2023-05-20T21:04:39.263Z,18.00
2023-05-20T21:07:08.795Z,17.90
2023-05-20T21:09:36.822Z,17.90
2023-05-20T21:12:06.706Z,17.80
2023-05-20T21:14:36.542Z,17.80
2023-05-20T21:17:04.578Z,17.80
2023-05-20T21:19:32.645Z,17.70
2023-05-20T21:22:00.759Z,17.70
2023-05-20T21:24:30.066Z,17.70
2023-05-20T21:26:58.105Z,17.60
2023-05-20T21:29:26.284Z,17.50
2023-05-20T21:31:55.117Z,17.40
2023-05-20T21:34:23.108Z,17.30
2023-05-20T21:36:51.095Z,17.30
2023-05-20T21:39:19.189Z,17.30
2023-05-20T21:41:48.542Z,17.20
2023-05-20T21:44:16.548Z,17.20
2023-05-20T21:46:44.575Z,17.20
2023-05-20T21:49:12.640Z,17.10
2023-05-20T21:51:40.613Z,17.10
2023-05-20T21:54:08.614Z,17.00
2023-05-20T21:56:36.621Z,17.00
2023-05-20T21:59:06.032Z,16.90
2023-05-20T22:01:34.073Z,16.80
2023-05-20T22:04:03.625Z,16.70
2023-05-20T22:06:36.127Z,16.70
2023-05-20T22:09:04.499Z,16.60
2023-05-20T22:11:32.503Z,16.60
2023-05-20T22:14:00.492Z,16.60
2023-05-20T22:16:30.176Z,16.50
2023-05-20T22:19:02.556Z,16.50
2023-05-20T22:21:34.299Z,16.40
2023-05-20T22:24:07.899Z,16.40
2023-05-20T22:26:36.110Z,16.40
2023-05-20T22:29:04.614Z,16.40
2023-05-20T22:31:34.596Z,16.30
2023-05-20T22:34:04.461Z,16.30
2023-05-20T22:36:33.885Z,16.30
2023-05-20T22:39:03.539Z,16.20
2023-05-20T22:41:31.643Z,16.10
2023-05-20T22:43:59.768Z,16.10
2023-05-20T22:46:27.813Z,16.10
2023-05-20T22:48:58.384Z,16.00
2023-05-20T22:51:26.422Z,16.00
2023-05-20T22:53:55.928Z,16.10
2023-05-20T22:56:25.779Z,16.00
2023-05-20T22:58:53.732Z,16.00
2023-05-20T23:01:22.155Z,15.90
2023-05-20T23:03:51.626Z,15.90
2023-05-20T23:06:22.680Z,15.90
2023-05-20T23:08:50.989Z,15.90
2023-05-20T23:11:19.118Z,15.80
2023-05-20T23:13:47.107Z,15.80
2023-05-20T23:16:15.213Z,15.80
2023-05-20T23:18:43.309Z,15.80
2023-05-20T23:21:11.759Z,15.80
2023-05-20T23:23:41.711Z,15.80
2023-05-20T23:26:09.754Z,15.80
2023-05-20T23:28:37.965Z,15.80
2023-05-20T23:31:06.738Z,15.70
2023-05-20T23:33:34.794Z,15.80
2023-05-20T23:36:02.887Z,15.70
2023-05-20T23:38:32.114Z,15.70
2023-05-20T23:41:01.455Z,15.70
2023-05-20T23:43:29.524Z,15.70
2023-05-20T23:45:57.614Z,15.60
2023-05-20T23:48:26.435Z,15.60
2023-05-20T23:50:54.448Z,15.60
2023-05-20T23:53:22.842Z,15.50
2023-05-20T23:55:50.985Z,15.40
2023-05-20T23:58:20.409Z,15.40
